Time;durP1;ratioP1;P1;durP2;ratioP2;P2;SDS_P1;SDS_P2;PMS_P1;PMS_P2;Temp;Humidity;BMP_temperature;BMP_pressure;BME280_temperature;BME280_humidity;BME280_pressure;Samples;Min_cycle;Max_cycle;Signal;HPM_P1;HPM_P2
2021/01/01 00:01:36;;;;;;;;;;;;;;;27.32;29.83;100199.91;5117522;28;1973;-40
2021/01/01 00:04:02;;;;;;;;;;;;;;;27.33;30.05;100198.03;5117378;28;794;-41
2021/01/01 00:06:27;;;;;;;;;;;;;;;27.77;29.05;100206.84;5116825;27;917;-41
2021/01/01 00:08:52;;;;;;;;;;;;;;;27.71;29.08;100208.47;5117485;28;746;-41
2021/01/01 00:11:17;;;;;;;;;;;;;;;27.73;29.30;100213.66;5137270;27;1177;-39
2021/01/01 00:13:43;;;;;;;;;;;;;;;27.91;28.75;100218.53;5137924;27;810;-40
2021/01/01 00:16:11;;;;;;;;;;;;;;;27.80;28.75;100232.63;5137775;27;746;-31
2021/01/01 00:18:37;;;;;;;;;;;;;;;27.51;29.30;100252.38;5137500;27;1209;-41
2021/01/01 00:21:02;;;;;;;;;;;;;;;28.01;28.52;100250.59;5127732;27;940;-41
2021/01/01 00:23:28;;;;;;;;;;;;;;;28.40;28.14;100247.44;5117131;28;1909;-36
2021/01/01 00:25:53;;;;;;;;;;;;;;;28.30;27.85;100248.63;5122153;27;850;-39
2021/01/01 00:28:18;;;;;;;;;;;;;;;27.93;28.46;100251.59;5137806;27;767;-41
2021/01/01 00:30:44;;;;;;;;;;;;;;;27.56;29.07;100254.50;5137485;27;826;-40
2021/01/01 00:33:09;;;;;;;;;;;;;;;28.05;28.54;100253.72;5137505;27;777;-42
2021/01/01 00:35:34;;;;;;;;;;;;;;;28.38;27.97;100257.66;5132032;27;1056;-39
2021/01/01 00:37:59;;;;;;;;;;;;;;;27.93;28.40;100257.00;5116842;28;854;-41
2021/01/01 00:40:25;;;;;;;;;;;;;;;27.81;28.69;100254.03;5116632;28;759;-39
2021/01/01 00:42:50;;;;;;;;;;;;;;;27.86;28.95;100253.47;5114955;28;1955;-41
2021/01/01 00:45:15;;;;;;;;;;;;;;;27.48;29.44;100250.09;5116767;28;778;-31
2021/01/01 00:47:45;;;;;;;;;;;;;;;28.04;28.39;100250.22;5116578;28;846;-30
2021/01/01 00:50:10;;;;;;;;;;;;;;;27.90;28.41;100254.72;5114645;27;930;-36
2021/01/01 00:52:36;;;;;;;;;;;;;;;27.83;28.49;100257.38;5132583;27;839;-40
2021/01/01 00:55:01;;;;;;;;;;;;;;;28.35;28.06;100258.88;5136995;27;777;-30
2021/01/01 00:57:27;;;;;;;;;;;;;;;28.23;28.07;100262.13;5137695;27;734;-31
2021/01/01 00:59:52;;;;;;;;;;;;;;;28.10;28.18;100264.78;5137145;27;869;-40
2021/01/01 01:02:17;;;;;;;;;;;;;;;27.96;28.29;100270.13;5137229;27;1963;-31
2021/01/01 01:04:42;;;;;;;;;;;;;;;27.99;28.39;100274.31;5136770;27;738;-34
2021/01/01 01:07:08;;;;;;;;;;;;;;;28.29;28.05;100271.31;5117742;27;945;-34
2021/01/01 01:09:33;;;;;;;;;;;;;;;28.29;28.12;100268.63;5122538;28;1189;-39
2021/01/01 01:11:58;;;;;;;;;;;;;;;27.98;28.37;100281.59;5136676;27;746;-40
2021/01/01 01:14:24;;;;;;;;;;;;;;;27.93;28.42;100275.09;5136399;28;755;-42
2021/01/01 01:16:49;;;;;;;;;;;;;;;27.61;29.29;100284.44;5137012;27;813;-41
2021/01/01 01:19:14;;;;;;;;;;;;;;;28.26;28.23;100287.13;5136598;27;1281;-30
2021/01/01 01:21:39;;;;;;;;;;;;;;;28.18;28.14;100286.25;5121775;27;1974;-31
2021/01/01 01:24:05;;;;;;;;;;;;;;;27.96;28.52;100282.81;5116597;28;893;-36
2021/01/01 01:26:30;;;;;;;;;;;;;;;27.92;28.59;100278.84;5118879;27;823;-32
2021/01/01 01:28:55;;;;;;;;;;;;;;;28.41;27.79;100284.28;5137125;27;833;-31
2021/01/01 01:31:21;;;;;;;;;;;;;;;28.17;28.27;100279.19;5137153;27;802;-31
2021/01/01 01:33:46;;;;;;;;;;;;;;;27.86;28.57;100284.00;5136552;27;1000;-31
2021/01/01 01:36:11;;;;;;;;;;;;;;;28.29;28.12;100276.72;5125907;27;965;-37
2021/01/01 01:38:36;;;;;;;;;;;;;;;27.98;28.26;100276.16;5116886;28;799;-41
2021/01/01 01:41:02;;;;;;;;;;;;;;;27.96;28.33;100282.81;5116012;28;846;-33
2021/01/01 01:43:27;;;;;;;;;;;;;;;27.47;29.10;100280.84;5116351;28;2018;-32
2021/01/01 01:45:53;;;;;;;;;;;;;;;27.75;28.70;100288.13;5114968;28;1272;-35
2021/01/01 01:48:39;;;;;;;;;;;;;;;27.94;28.51;100276.78;5117929;28;810;-33
2021/01/01 01:51:07;;;;;;;;;;;;;;;27.71;28.60;100280.63;5119187;27;1315;-32
2021/01/01 01:53:34;;;;;;;;;;;;;;;26.94;30.10;100270.41;5120502;28;815;-32
2021/01/01 01:55:59;;;;;;;;;;;;;;;27.28;29.74;100274.25;5118538;28;759;-32
2021/01/01 01:58:24;;;;;;;;;;;;;;;27.42;29.40;100261.69;5120230;28;1024;-35
2021/01/01 02:00:59;;;;;;;;;;;;;;;27.88;28.44;100262.19;5119090;28;843;-33
2021/01/01 02:03:27;;;;;;;;;;;;;;;27.82;28.78;100257.59;5119541;28;1898;-34
2021/01/01 02:05:52;;;;;;;;;;;;;;;27.45;29.39;100258.59;5119561;27;996;-31
2021/01/01 02:08:18;;;;;;;;;;;;;;;27.48;29.34;100265.44;5119528;28;1416;-32
2021/01/01 02:10:43;;;;;;;;;;;;;;;27.69;28.72;100274.56;5135326;27;976;-41
2021/01/01 02:13:09;;;;;;;;;;;;;;;27.79;28.71;100277.75;5140368;27;817;-32
2021/01/01 02:15:34;;;;;;;;;;;;;;;27.48;29.25;100274.41;5139121;27;751;-37
2021/01/01 02:17:59;;;;;;;;;;;;;;;27.24;29.82;100281.09;5139908;27;806;-31
2021/01/01 02:20:25;;;;;;;;;;;;;;;27.05;30.00;100283.41;5135480;27;1094;-31
2021/01/01 02:22:50;;;;;;;;;;;;;;;27.63;29.19;100286.97;5119255;28;1906;-32
2021/01/01 02:25:15;;;;;;;;;;;;;;;27.80;28.73;100298.31;5119149;28;843;-32
2021/01/01 02:27:41;;;;;;;;;;;;;;;27.85;28.73;100292.31;5119605;28;792;-31
2021/01/01 02:30:06;;;;;;;;;;;;;;;27.18;29.81;100293.47;5119402;28;756;-39
2021/01/01 02:32:31;;;;;;;;;;;;;;;27.31;29.45;100292.75;5119434;28;801;-40
2021/01/01 02:34:57;;;;;;;;;;;;;;;27.53;29.08;100295.41;5119168;27;1043;-34
2021/01/01 02:37:22;;;;;;;;;;;;;;;27.91;28.52;100282.59;5118979;27;988;-33
2021/01/01 02:39:48;;;;;;;;;;;;;;;27.84;28.32;100279.84;5119076;28;838;-32
2021/01/01 02:42:16;;;;;;;;;;;;;;;27.81;28.55;100281.06;5119204;28;1953;-38
2021/01/01 02:44:41;;;;;;;;;;;;;;;28.00;28.26;100286.78;5118786;28;837;-33
2021/01/01 02:47:07;;;;;;;;;;;;;;;27.90;28.55;100289.84;5118821;28;755;-31
2021/01/01 02:49:32;;;;;;;;;;;;;;;27.83;28.66;100288.97;5119214;28;803;-32
2021/01/01 02:51:58;;;;;;;;;;;;;;;28.13;27.96;100286.00;5118166;27;929;-33
2021/01/01 02:54:23;;;;;;;;;;;;;;;27.68;28.92;100279.13;5119077;28;743;-32
2021/01/01 02:56:48;;;;;;;;;;;;;;;27.89;28.48;100285.50;5119043;28;841;-32
2021/01/01 02:59:13;;;;;;;;;;;;;;;27.87;28.67;100288.41;5117855;28;850;-34
2021/01/01 03:01:39;;;;;;;;;;;;;;;27.89;28.40;100280.09;5118870;28;1965;-32
2021/01/01 03:04:04;;;;;;;;;;;;;;;28.09;28.38;100276.66;5119171;28;770;-34
2021/01/01 03:06:29;;;;;;;;;;;;;;;28.31;27.63;100285.44;5118363;27;949;-33
2021/01/01 03:08:55;;;;;;;;;;;;;;;28.03;28.11;100293.69;5118742;27;1130;-32
2021/01/01 03:11:20;;;;;;;;;;;;;;;27.85;28.42;100301.28;5139344;27;830;-41
2021/01/01 03:13:45;;;;;;;;;;;;;;;28.11;27.90;100307.84;5138930;27;817;-32
2021/01/01 03:16:10;;;;;;;;;;;;;;;28.19;28.12;100309.56;5139269;27;809;-33
2021/01/01 03:18:36;;;;;;;;;;;;;;;28.33;27.49;100315.88;5139054;27;1103;-31
2021/01/01 03:21:01;;;;;;;;;;;;;;;27.98;28.04;100322.13;5129038;27;928;-32
2021/01/01 03:23:26;;;;;;;;;;;;;;;27.87;28.60;100320.84;5118479;28;1908;-31
2021/01/01 03:25:52;;;;;;;;;;;;;;;28.02;28.32;100325.28;5118352;28;770;-41
2021/01/01 03:28:17;;;;;;;;;;;;;;;28.42;27.56;100329.22;5118708;28;727;-41
2021/01/01 03:30:42;;;;;;;;;;;;;;;28.22;27.84;100328.09;5118097;28;838;-32
2021/01/01 03:33:07;;;;;;;;;;;;;;;27.91;28.36;100331.25;5117722;28;763;-32
2021/01/01 03:35:34;;;;;;;;;;;;;;;27.82;28.40;100330.56;5117948;27;985;-36
2021/01/01 03:37:59;;;;;;;;;;;;;;;28.34;27.83;100332.94;5117738;27;872;-32
2021/01/01 03:40:25;;;;;;;;;;;;;;;28.48;27.39;100336.53;5117968;28;1161;-40
2021/01/01 03:42:50;;;;;;;;;;;;;;;28.04;28.09;100339.44;5117954;28;1906;-31
2021/01/01 03:45:15;;;;;;;;;;;;;;;27.88;28.37;100345.97;5117458;28;902;-40
2021/01/01 03:47:40;;;;;;;;;;;;;;;27.75;28.57;100336.75;5117858;28;798;-33
2021/01/01 03:50:07;;;;;;;;;;;;;;;26.71;30.38;100342.41;5117652;27;953;-40
2021/01/01 03:52:32;;;;;;;;;;;;;;;27.69;28.85;100332.16;5117667;28;1026;-31
2021/01/01 03:54:57;;;;;;;;;;;;;;;27.71;28.72;100334.66;5117411;28;901;-41
2021/01/01 03:57:23;;;;;;;;;;;;;;;27.80;28.46;100338.88;5118184;28;787;-37
2021/01/01 03:59:48;;;;;;;;;;;;;;;27.88;28.32;100329.75;5117665;28;898;-33
2021/01/01 04:02:13;;;;;;;;;;;;;;;28.11;27.96;100342.19;5117253;28;1902;-40
2021/01/01 04:04:39;;;;;;;;;;;;;;;27.35;29.34;100339.97;5118078;28;735;-36
2021/01/01 04:07:04;;;;;;;;;;;;;;;27.82;28.34;100342.22;5117347;27;1036;-39
2021/01/01 04:09:29;;;;;;;;;;;;;;;27.88;28.26;100345.97;5122893;27;1090;-32
2021/01/01 04:11:54;;;;;;;;;;;;;;;28.05;28.09;100353.78;5138009;27;782;-37
2021/01/01 04:14:20;;;;;;;;;;;;;;;28.23;28.26;100358.66;5134718;27;1047;-34
2021/01/01 04:16:45;;;;;;;;;;;;;;;27.94;28.84;100353.31;5117004;28;771;-41
2021/01/01 04:19:10;;;;;;;;;;;;;;;27.90;28.37;100364.69;5117299;28;1319;-33
2021/01/01 04:21:36;;;;;;;;;;;;;;;27.75;28.28;100365.66;5116837;27;1032;-34
2021/01/01 04:24:01;;;;;;;;;;;;;;;28.17;28.18;100365.72;5117378;28;755;-35
2021/01/01 04:26:26;;;;;;;;;;;;;;;28.07;28.17;100376.03;5127079;27;874;-41
2021/01/01 04:28:52;;;;;;;;;;;;;;;27.61;28.76;100375.50;5137962;27;798;-32
2021/01/01 04:31:17;;;;;;;;;;;;;;;27.32;29.39;100385.41;5137425;27;870;-37
2021/01/01 04:33:43;;;;;;;;;;;;;;;27.00;28.72;100388.41;5137773;27;819;-46
2021/01/01 04:36:08;;;;;;;;;;;;;;;25.21;25.31;100388.88;5126622;27;1060;-44
2021/01/01 04:38:33;;;;;;;;;;;;;;;24.29;25.96;100383.94;5116893;28;754;-48
2021/01/01 04:40:59;;;;;;;;;;;;;;;23.53;28.21;100393.91;5117068;28;790;-33
2021/01/01 04:43:24;;;;;;;;;;;;;;;23.16;28.37;100403.19;5115368;28;1901;-47
2021/01/01 04:45:49;;;;;;;;;;;;;;;22.96;28.85;100392.75;5116822;28;739;-42
2021/01/01 04:48:14;;;;;;;;;;;;;;;22.32;28.81;100400.19;5117017;28;818;-44
2021/01/01 04:50:40;;;;;;;;;;;;;;;21.45;30.15;100399.06;5116559;27;953;-44
2021/01/01 04:53:06;;;;;;;;;;;;;;;21.26;30.95;100400.88;5135655;27;808;-46
2021/01/01 04:55:31;;;;;;;;;;;;;;;22.17;30.39;100407.16;5137696;27;809;-40
2021/01/01 04:57:56;;;;;;;;;;;;;;;24.69;27.57;100410.84;5136785;27;1422;-40
2021/01/01 05:00:22;;;;;;;;;;;;;;;25.22;27.13;100415.63;5143221;27;1217;-42
2021/01/01 05:02:47;;;;;;;;;;;;;;;24.14;27.21;100411.47;5137165;27;1964;-34
2021/01/01 05:05:12;;;;;;;;;;;;;;;24.35;27.07;100407.41;5134444;27;944;-45
2021/01/01 05:07:37;;;;;;;;;;;;;;;25.42;26.07;100405.19;5116832;28;906;-45
2021/01/01 05:10:03;;;;;;;;;;;;;;;25.23;25.91;100417.28;5126765;28;1079;-34
2021/01/01 05:12:32;;;;;;;;;;;;;;;25.19;27.04;100421.38;5137288;27;799;-43
2021/01/01 05:14:57;;;;;;;;;;;;;;;25.28;27.68;100428.38;5136767;27;894;-44
2021/01/01 05:17:32;;;;;;;;;;;;;;;24.30;29.53;100426.75;5137167;27;798;-35
2021/01/01 05:20:02;;;;;;;;;;;;;;;24.66;29.70;100427.28;5136830;27;1151;-35
2021/01/01 05:22:27;;;;;;;;;;;;;;;25.25;28.73;100436.81;5116832;28;1975;-36
2021/01/01 05:24:53;;;;;;;;;;;;;;;25.42;28.59;100439.38;5119357;28;834;-39
2021/01/01 05:27:18;;;;;;;;;;;;;;;25.39;28.68;100450.50;5120018;28;814;-36
2021/01/01 05:29:43;;;;;;;;;;;;;;;24.81;29.69;100448.94;5120590;28;555;-36
2021/01/01 05:32:09;;;;;;;;;;;;;;;25.74;28.42;100450.13;5120595;28;766;-36
2021/01/01 05:34:41;;;;;;;;;;;;;;;25.39;28.93;100442.44;5120733;28;837;-35
2021/01/01 05:37:06;;;;;;;;;;;;;;;25.69;28.63;100456.06;5120206;27;1001;-37
2021/01/01 05:39:31;;;;;;;;;;;;;;;25.65;28.50;100455.56;5120597;28;853;-39
2021/01/01 05:41:56;;;;;;;;;;;;;;;25.38;29.37;100460.44;5124728;27;1913;-39
2021/01/01 05:44:31;;;;;;;;;;;;;;;26.64;27.61;100461.03;5139778;27;862;-41
2021/01/01 05:46:57;;;;;;;;;;;;;;;26.82;26.96;100465.22;5140594;27;830;-39
2021/01/01 05:49:31;;;;;;;;;;;;;;;26.19;28.29;100468.25;5141076;27;749;-42
2021/01/01 05:52:09;;;;;;;;;;;;;;;25.47;29.47;100466.63;5122770;27;989;-35
2021/01/01 05:54:36;;;;;;;;;;;;;;;26.64;27.92;100474.53;5120430;28;770;-38
2021/01/01 05:57:04;;;;;;;;;;;;;;;27.06;27.25;100478.63;5120537;28;817;-38
2021/01/01 05:59:30;;;;;;;;;;;;;;;26.23;28.59;100475.78;5121400;27;839;-40
2021/01/01 06:01:56;;;;;;;;;;;;;;;26.07;28.95;100475.94;5139591;27;1905;-38
2021/01/01 06:04:24;;;;;;;;;;;;;;;25.46;30.05;100482.94;5140445;27;833;-37
2021/01/01 06:06:53;;;;;;;;;;;;;;;26.07;29.61;100482.19;5123487;27;1004;-37
2021/01/01 06:09:22;;;;;;;;;;;;;;;26.93;28.01;100485.47;5123474;27;1098;-38
2021/01/01 06:11:54;;;;;;;;;;;;;;;26.90;28.21;100486.72;5140314;27;816;-36
2021/01/01 06:14:19;;;;;;;;;;;;;;;26.74;28.38;100486.91;5127479;27;807;-37
2021/01/01 06:16:45;;;;;;;;;;;;;;;25.90;29.90;100494.94;5130782;27;803;-39
2021/01/01 06:19:11;;;;;;;;;;;;;;;27.01;28.32;100493.50;5139803;27;1227;-38
2021/01/01 06:21:39;;;;;;;;;;;;;;;27.36;27.74;100495.56;5125009;27;977;-37
2021/01/01 06:24:05;;;;;;;;;;;;;;;27.16;27.94;100505.31;5118485;28;1905;-38
2021/01/01 06:26:30;;;;;;;;;;;;;;;27.05;28.03;100493.97;5119529;28;755;-36
2021/01/01 06:28:55;;;;;;;;;;;;;;;26.81;28.22;100492.41;5118160;28;759;-38
2021/01/01 06:31:20;;;;;;;;;;;;;;;26.78;28.55;100501.69;5118341;28;810;-37
2021/01/01 06:33:46;;;;;;;;;;;;;;;27.58;27.59;100502.84;5118378;28;763;-41
2021/01/01 06:36:29;;;;;;;;;;;;;;;27.59;27.38;100508.06;5118207;27;1009;-39
2021/01/01 06:38:55;;;;;;;;;;;;;;;27.13;28.16;100512.78;5119740;28;787;-42
2021/01/01 06:41:39;;;;;;;;;;;;;;;26.92;28.36;100509.97;5117713;28;881;-42
2021/01/01 06:44:04;;;;;;;;;;;;;;;27.07;28.44;100515.38;5119046;28;1959;-36
2021/01/01 06:46:36;;;;;;;;;;;;;;;27.66;27.45;100521.66;5119514;28;810;-36
2021/01/01 06:49:05;;;;;;;;;;;;;;;27.81;27.37;100526.19;5119581;28;751;-50
2021/01/01 06:51:31;;;;;;;;;;;;;;;27.60;27.75;100523.25;5118635;27;1009;-37
2021/01/01 06:54:16;;;;;;;;;;;;;;;27.55;27.81;100528.41;5118984;28;822;-39
2021/01/01 06:56:42;;;;;;;;;;;;;;;27.49;28.04;100521.06;5118905;28;1831;-42
2021/01/01 06:59:08;;;;;;;;;;;;;;;27.54;28.06;100529.44;5118906;28;854;-37
2021/01/01 07:01:39;;;;;;;;;;;;;;;28.24;27.15;100530.72;5118820;28;838;-36
2021/01/01 07:04:04;;;;;;;;;;;;;;;27.92;27.41;100538.34;5119226;28;1956;-41
2021/01/01 07:06:29;;;;;;;;;;;;;;;27.61;28.29;100540.31;5130179;27;1016;-42
2021/01/01 07:08:54;;;;;;;;;;;;;;;27.54;28.14;100532.16;5139427;27;1086;-33
2021/01/01 07:11:23;;;;;;;;;;;;;;;27.20;28.86;100539.00;5139532;27;865;-44
2021/01/01 07:13:48;;;;;;;;;;;;;;;27.56;28.18;100543.56;5138887;27;833;-33
2021/01/01 07:16:14;;;;;;;;;;;;;;;27.81;27.87;100550.53;5139640;27;902;-33
2021/01/01 07:18:40;;;;;;;;;;;;;;;27.69;28.12;100548.34;5139210;27;1107;-33
2021/01/01 07:21:05;;;;;;;;;;;;;;;27.70;28.35;100546.47;5128393;27;936;-36
2021/01/01 07:23:31;;;;;;;;;;;;;;;27.56;28.45;100553.56;5118467;28;1901;-37
2021/01/01 07:25:56;;;;;;;;;;;;;;;27.52;28.65;100555.81;5118695;28;751;-36
2021/01/01 07:28:21;;;;;;;;;;;;;;;27.41;28.81;100556.31;5118208;28;833;-32
2021/01/01 07:30:47;;;;;;;;;;;;;;;27.83;27.96;100564.66;5118189;28;510;-36
2021/01/01 07:33:12;;;;;;;;;;;;;;;27.73;28.08;100568.53;5118453;28;757;-33
2021/01/01 07:35:37;;;;;;;;;;;;;;;27.63;28.05;100579.63;5122377;27;946;-33
2021/01/01 07:38:03;;;;;;;;;;;;;;;26.84;29.65;100578.38;5137381;27;1434;-32
2021/01/01 07:40:28;;;;;;;;;;;;;;;27.58;28.88;100590.16;5139229;27;752;-32
2021/01/01 07:42:54;;;;;;;;;;;;;;;27.79;27.98;100599.38;5138262;27;1956;-33
2021/01/01 07:45:19;;;;;;;;;;;;;;;27.67;28.29;100599.00;5138066;27;853;-31
2021/01/01 07:47:45;;;;;;;;;;;;;;;27.17;29.65;100606.88;5138881;27;779;-30
2021/01/01 07:50:13;;;;;;;;;;;;;;;27.46;28.98;100613.31;5137348;27;1012;-31
2021/01/01 07:52:39;;;;;;;;;;;;;;;27.75;28.50;100620.53;5138516;27;755;-31
2021/01/01 07:55:04;;;;;;;;;;;;;;;27.61;28.38;100619.50;5138722;27;865;-33
2021/01/01 07:57:29;;;;;;;;;;;;;;;27.61;28.68;100622.19;5138314;27;699;-41
2021/01/01 07:59:55;;;;;;;;;;;;;;;27.38;29.30;100625.03;5138544;27;719;-38
2021/01/01 08:02:20;;;;;;;;;;;;;;;27.90;28.09;100627.75;5138235;27;1931;-29
2021/01/01 08:04:46;;;;;;;;;;;;;;;27.73;28.08;100629.84;5136850;27;815;-41
2021/01/01 08:07:11;;;;;;;;;;;;;;;27.56;28.88;100629.22;5136425;27;931;-40
2021/01/01 08:09:44;;;;;;;;;;;;;;;27.18;29.35;100631.00;5136941;27;1125;-41
2021/01/01 08:12:09;;;;;;;;;;;;;;;27.25;29.63;100639.19;5137774;27;882;-34
2021/01/01 08:14:35;;;;;;;;;;;;;;;27.63;28.85;100639.06;5138263;27;822;-36
2021/01/01 08:17:16;;;;;;;;;;;;;;;27.60;28.68;100639.44;5138036;27;802;-32
2021/01/01 08:19:41;;;;;;;;;;;;;;;27.56;28.68;100634.63;5137688;27;1246;-31
2021/01/01 08:22:06;;;;;;;;;;;;;;;27.59;28.71;100642.34;5118753;27;1961;-41
2021/01/01 08:24:32;;;;;;;;;;;;;;;27.55;28.92;100655.38;5117785;28;1105;-41
2021/01/01 08:26:58;;;;;;;;;;;;;;;27.48;28.80;100655.31;5116310;28;779;-32
2021/01/01 08:29:23;;;;;;;;;;;;;;;27.36;29.04;100652.22;5116212;28;844;-31
2021/01/01 08:31:48;;;;;;;;;;;;;;;27.37;29.35;100655.78;5116140;28;810;-41
2021/01/01 08:34:13;;;;;;;;;;;;;;;27.34;29.06;100656.97;5117665;28;846;-31
2021/01/01 08:36:39;;;;;;;;;;;;;;;27.38;29.16;100652.03;5130621;27;985;-34
2021/01/01 08:39:05;;;;;;;;;;;;;;;27.31;29.12;100651.94;5137920;27;818;-34
2021/01/01 08:41:31;;;;;;;;;;;;;;;27.32;29.38;100650.94;5137793;27;875;-31
2021/01/01 08:43:56;;;;;;;;;;;;;;;27.36;29.11;100652.22;5136550;27;1988;-41
2021/01/01 08:46:21;;;;;;;;;;;;;;;27.25;29.52;100658.09;5137936;27;886;-41
2021/01/01 08:48:46;;;;;;;;;;;;;;;27.25;29.56;100650.84;5137652;27;743;-34
2021/01/01 08:51:12;;;;;;;;;;;;;;;27.24;29.61;100657.25;5126483;27;945;-34
2021/01/01 08:53:40;;;;;;;;;;;;;;;27.21;29.68;100654.94;5117220;28;788;-30
2021/01/01 08:56:06;;;;;;;;;;;;;;;27.25;29.63;100655.41;5115515;28;859;-41
2021/01/01 08:58:32;;;;;;;;;;;;;;;27.24;29.71;100654.56;5116442;28;803;-31
2021/01/01 09:00:57;;;;;;;;;;;;;;;27.23;29.49;100661.00;5117046;28;867;-41
2021/01/01 09:03:23;;;;;;;;;;;;;;;27.31;29.48;100645.72;5115547;28;1901;-33
2021/01/01 09:05:51;;;;;;;;;;;;;;;27.36;29.49;100652.22;5116888;27;993;-41
2021/01/01 09:08:17;;;;;;;;;;;;;;;27.37;29.51;100653.06;5117352;28;771;-42
2021/01/01 09:10:42;;;;;;;;;;;;;;;27.28;29.36;100655.03;5132503;28;1083;-37
2021/01/01 09:13:21;;;;;;;;;;;;;;;27.35;29.38;100657.81;5137754;27;802;-37
2021/01/01 09:15:47;;;;;;;;;;;;;;;26.96;28.61;100663.25;5137735;27;857;-36
2021/01/01 09:18:12;;;;;;;;;;;;;;;26.17;30.08;100659.84;5137625;27;792;-32
2021/01/01 09:20:42;;;;;;;;;;;;;;;26.49;29.77;100666.03;5130606;27;1321;-33
2021/01/01 09:23:08;;;;;;;;;;;;;;;27.69;27.82;100666.41;5135019;27;1913;-35
2021/01/01 09:25:33;;;;;;;;;;;;;;;27.99;27.33;100669.03;5136523;27;873;-33
2021/01/01 09:27:58;;;;;;;;;;;;;;;27.98;27.74;100668.19;5137672;27;770;-36
2021/01/01 09:30:25;;;;;;;;;;;;;;;27.16;27.31;100670.03;5137586;27;825;-31
2021/01/01 09:32:51;;;;;;;;;;;;;;;26.10;27.31;100661.56;5137179;27;850;-30
2021/01/01 09:35:16;;;;;;;;;;;;;;;26.17;28.01;100667.94;5133662;27;1004;-47
2021/01/01 09:37:51;;;;;;;;;;;;;;;26.60;27.51;100672.03;5121690;27;807;-43
2021/01/01 09:40:16;;;;;;;;;;;;;;;26.65;25.07;100670.47;5137178;27;787;-29
2021/01/01 09:42:42;;;;;;;;;;;;;;;26.32;25.77;100665.31;5137144;27;1972;-30
2021/01/01 09:45:07;;;;;;;;;;;;;;;26.01;28.05;100655.38;5137276;27;856;-35
2021/01/01 09:47:33;;;;;;;;;;;;;;;25.97;27.51;100646.00;5137442;27;804;-31
2021/01/01 09:49:58;;;;;;;;;;;;;;;26.07;27.54;100645.75;5136059;27;1003;-30
2021/01/01 09:52:23;;;;;;;;;;;;;;;26.26;28.24;100649.81;5130305;27;934;-36
2021/01/01 09:54:49;;;;;;;;;;;;;;;26.44;28.42;100646.88;5137077;27;830;-31
2021/01/01 09:57:14;;;;;;;;;;;;;;;26.50;26.35;100648.84;5136922;27;783;-33
2021/01/01 09:59:39;;;;;;;;;;;;;;;26.40;25.76;100645.56;5137455;27;802;-46
2021/01/01 10:02:04;;;;;;;;;;;;;;;26.69;27.30;100648.53;5136871;27;1886;-30
2021/01/01 10:04:30;;;;;;;;;;;;;;;26.96;27.61;100651.66;5136920;27;802;-35
2021/01/01 10:06:55;;;;;;;;;;;;;;;26.45;25.30;100645.84;5119520;27;937;-43
2021/01/01 10:09:20;;;;;;;;;;;;;;;26.27;25.44;100646.13;5122204;27;1082;-32
2021/01/01 10:11:49;;;;;;;;;;;;;;;26.20;26.61;100650.56;5140415;27;810;-45
2021/01/01 10:14:14;;;;;;;;;;;;;;;26.07;27.32;100648.44;5140880;27;750;-37
2021/01/01 10:16:39;;;;;;;;;;;;;;;26.83;27.57;100644.16;5140972;27;877;-37
2021/01/01 10:19:05;;;;;;;;;;;;;;;26.97;27.45;100639.81;5140245;27;1086;-37
2021/01/01 10:21:30;;;;;;;;;;;;;;;27.29;27.15;100643.22;5126632;27;1061;-34
2021/01/01 10:23:55;;;;;;;;;;;;;;;27.32;27.46;100640.13;5119926;28;1976;-42
2021/01/01 10:26:21;;;;;;;;;;;;;;;27.26;27.51;100639.00;5119808;28;755;-42
2021/01/01 10:28:46;;;;;;;;;;;;;;;27.25;27.67;100637.34;5119897;28;835;-36
2021/01/01 10:31:11;;;;;;;;;;;;;;;27.23;27.47;100636.69;5119882;28;767;-36
2021/01/01 10:33:36;;;;;;;;;;;;;;;27.30;27.66;100631.38;5119461;28;802;-35
2021/01/01 10:36:02;;;;;;;;;;;;;;;27.24;27.75;100626.72;5119183;27;961;-34
2021/01/01 10:38:27;;;;;;;;;;;;;;;27.21;27.75;100637.91;5119873;27;905;-37
2021/01/01 10:40:52;;;;;;;;;;;;;;;27.18;27.88;100640.97;5119412;28;814;-37
2021/01/01 10:43:17;;;;;;;;;;;;;;;27.14;27.95;100638.63;5119246;28;1967;-36
2021/01/01 10:45:43;;;;;;;;;;;;;;;27.17;27.92;100633.91;5119334;28;806;-44
2021/01/01 10:48:08;;;;;;;;;;;;;;;27.22;27.92;100632.31;5118897;27;1513;-36
2021/01/01 10:50:33;;;;;;;;;;;;;;;27.24;28.07;100632.94;5119004;27;953;-33
2021/01/01 10:52:59;;;;;;;;;;;;;;;27.30;28.13;100644.03;5119685;28;787;-38
2021/01/01 10:55:24;;;;;;;;;;;;;;;27.36;28.06;100646.00;5119114;28;807;-38
2021/01/01 10:57:49;;;;;;;;;;;;;;;27.42;28.27;100642.56;5119177;28;760;-33
2021/01/01 11:00:15;;;;;;;;;;;;;;;27.35;28.19;100645.16;5119339;28;881;-36
2021/01/01 11:02:40;;;;;;;;;;;;;;;27.36;28.12;100643.31;5119066;28;1961;-41
2021/01/01 11:05:06;;;;;;;;;;;;;;;27.25;28.26;100644.59;5119159;27;946;-40
2021/01/01 11:07:31;;;;;;;;;;;;;;;27.34;28.08;100645.34;5119184;28;770;-35
2021/01/01 11:09:56;;;;;;;;;;;;;;;27.39;28.26;100646.44;5127803;27;1102;-41
2021/01/01 11:12:22;;;;;;;;;;;;;;;27.24;28.22;100643.75;5139695;27;770;-43
2021/01/01 12:25:17;;;;;;;;;;;;;;;27.09;28.10;100703.16;5117192;28;612;-39
2021/01/01 12:27:43;;;;;;;;;;;;;;;27.66;27.69;100701.88;5117473;28;873;-45
2021/01/01 12:30:09;;;;;;;;;;;;;;;27.80;27.81;100700.19;5117599;28;788;-39
2021/01/01 12:32:36;;;;;;;;;;;;;;;27.72;27.96;100710.09;5117438;28;747;-36
2021/01/01 12:35:01;;;;;;;;;;;;;;;27.86;27.80;100711.09;5116577;27;953;-35
2021/01/01 12:37:26;;;;;;;;;;;;;;;27.95;27.47;100708.28;5117211;28;1047;-40
2021/01/01 12:39:52;;;;;;;;;;;;;;;28.04;27.29;100712.56;5117106;28;723;-41
2021/01/01 12:42:19;;;;;;;;;;;;;;;27.84;27.55;100712.31;5117186;28;1909;-40
2021/01/01 12:44:44;;;;;;;;;;;;;;;27.94;27.70;100715.56;5120648;27;827;-35
2021/01/01 12:47:09;;;;;;;;;;;;;;;27.97;27.46;100714.34;5137426;27;779;-35
2021/01/01 12:49:34;;;;;;;;;;;;;;;27.51;27.68;100713.50;5136238;27;984;-35
2021/01/01 12:52:00;;;;;;;;;;;;;;;26.98;28.36;100717.06;5119682;27;1011;-36
2021/01/01 12:54:25;;;;;;;;;;;;;;;26.87;28.45;100723.75;5116715;28;767;-34
2021/01/01 12:56:50;;;;;;;;;;;;;;;26.86;28.57;100717.50;5117185;28;839;-35
2021/01/01 12:59:15;;;;;;;;;;;;;;;27.38;28.19;100716.88;5117297;28;805;-43
2021/01/01 13:01:41;;;;;;;;;;;;;;;27.77;27.60;100727.59;5116577;28;825;-41
2021/01/01 13:04:06;;;;;;;;;;;;;;;27.84;27.52;100725.84;5117261;28;1910;-39
2021/01/01 13:06:31;;;;;;;;;;;;;;;28.03;27.04;100734.41;5116971;27;1149;-42
2021/01/01 13:08:57;;;;;;;;;;;;;;;27.96;27.57;100731.59;5117033;28;1062;-42
2021/01/01 13:11:25;;;;;;;;;;;;;;;28.06;27.38;100734.81;5137912;27;758;-36
2021/01/01 13:13:51;;;;;;;;;;;;;;;27.97;27.68;100734.13;5137396;27;917;-39
2021/01/01 13:16:23;;;;;;;;;;;;;;;27.95;27.40;100740.72;5136814;27;794;-35
2021/01/01 13:18:48;;;;;;;;;;;;;;;27.82;27.63;100738.69;5137106;27;1049;-35
2021/01/01 13:21:22;;;;;;;;;;;;;;;27.81;27.67;100743.25;5126123;27;937;-35
2021/01/01 13:23:48;;;;;;;;;;;;;;;27.90;27.80;100740.44;5116233;28;1956;-35
2021/01/01 13:26:17;;;;;;;;;;;;;;;28.11;27.73;100753.22;5117013;28;808;-38
2021/01/01 13:28:42;;;;;;;;;;;;;;;28.17;27.68;100752.44;5116922;28;966;-40
2021/01/01 13:31:08;;;;;;;;;;;;;;;28.24;27.66;100750.63;5116387;28;743;-34
2021/01/01 13:33:33;;;;;;;;;;;;;;;28.23;27.75;100761.66;5116975;28;850;-35
2021/01/01 13:35:58;;;;;;;;;;;;;;;28.14;27.93;100758.22;5116246;27;1129;-34
2021/01/01 13:38:23;;;;;;;;;;;;;;;28.46;28.13;100761.50;5116423;28;755;-43
2021/01/01 13:40:49;;;;;;;;;;;;;;;28.23;28.63;100759.78;5116828;28;807;-38
2021/01/01 13:43:14;;;;;;;;;;;;;;;28.13;28.95;100761.94;5116708;28;1964;-39
2021/01/01 13:45:40;;;;;;;;;;;;;;;28.41;28.91;100765.84;5120111;28;533;-44
2021/01/01 13:48:05;;;;;;;;;;;;;;;28.53;28.83;100775.13;5120502;27;819;-36
2021/01/01 13:50:30;;;;;;;;;;;;;;;28.34;28.94;100774.69;5120463;27;949;-39
2021/01/01 13:52:56;;;;;;;;;;;;;;;28.30;29.19;100783.38;5138275;27;817;-34
2021/01/01 13:55:21;;;;;;;;;;;;;;;28.50;29.24;100780.91;5140941;27;945;-35
2021/01/01 13:57:46;;;;;;;;;;;;;;;28.28;29.54;100782.75;5141132;27;792;-34